| time (UTC) | temp F | wind direction | speed MPH | gust MPH | rain 1hr in | rain 24hr in | rain mn in | humidity % | barometer mb |
| 20260905083005 | 71 | 264 | 1.0 | 0.0 | 0.00 | 0.00 | 0.00 | 97 | 1010.8 |
| 20260905081559 | 72 | 242 | 2.0 | 0.0 | 0.00 | 0.00 | 0.00 | 97 | 1010.9 |
| 20260905081502 | 72 | 240 | 2.0 | 0.0 | 0.00 | 0.00 | 0.00 | 97 | 1010.9 |
| 20260905080054 | 72 | 227 | 2.0 | 0.0 | 0.00 | 0.00 | 0.00 | 97 | 1010.8 |
| 20260905080003 | 72 | 227 | 2.0 | 0.0 | 0.00 | 0.00 | 0.00 | 97 | 1010.8 |
| 20260905074556 | 72 | 125 | 0.0 | 0.0 | 0.00 | 0.00 | 0.00 | 97 | 1009.8 |
| 20260905073054 | 72 | 125 | 0.0 | 0.0 | 0.00 | 0.00 | 0.00 | 97 | 1009.6 |
| 20260905071540 | 71 | 128 | 0.0 | 0.0 | 0.00 | 0.00 | 0.00 | 97 | 1010.2 |
| 20260905070022 | 71 | 126 | 0.0 | 0.0 | 0.00 | 0.00 | 0.00 | 97 | 1010.2 |
| 20260905064508 | 70 | 126 | 0.0 | 0.0 | 0.00 | 0.00 | 0.00 | 97 | 1010.4 |
| 20260905063101 | 70 | 126 | 0.0 | 0.0 | 0.00 | 0.00 | 0.00 | 97 | 1010.5 |
| 20260905063003 | 70 | 127 | 0.0 | 0.0 | 0.00 | 0.00 | 0.00 | 97 | 1010.5 |
| 20260905061559 | 70 | 128 | 0.0 | 0.0 | 0.00 | 0.00 | 0.00 | 97 | 1010.8 |
| 20260905060041 | 70 | 128 | 0.0 | 0.0 | 0.00 | 0.00 | 0.00 | 97 | 1011.2 |
| 20260905054542 | 70 | 128 | 0.0 | 0.0 | 0.00 | 0.00 | 0.00 | 97 | 1011.3 |
| 20260905053019 | 70 | 128 | 0.0 | 0.0 | 0.00 | 0.00 | 0.00 | 96 | 1011.4 |
| 20260905051519 | 71 | 128 | 0.0 | 0.0 | 0.00 | 0.00 | 0.00 | 97 | 1011.5 |
| 20260905050017 | 71 | 128 | 0.0 | 0.0 | 0.00 | 0.00 | 0.00 | 96 | 1011.7 |
| 20260905044557 | 71 | 128 | 0.0 | 0.0 | 0.00 | 0.00 | 0.00 | 96 | 1011.4 |
| 20260905043050 | 71 | 128 | 0.0 | 0.0 | 0.00 | 0.00 | 0.00 | 97 | 1011.4 |
| 20260905041545 | 71 | 128 | 0.0 | 0.0 | 0.00 | 0.00 | 0.00 | 96 | 1011.5 |
| 20260905040026 | 71 | 128 | 0.0 | 0.0 | 0.00 | 0.00 | 0.00 | 97 | 1011.5 |
| 20260905034510 | 71 | 128 | 0.0 | 0.0 | 0.00 | 0.00 | 0.90 | 96 | 1011.5 |
| 20260905033105 | 71 | 128 | 0.0 | 0.0 | 0.00 | 0.00 | 0.90 | 95 | 1011.4 |
| 20260905033002 | 71 | 128 | 0.0 | 0.0 | 0.00 | 0.00 | 0.90 | 95 | 1011.4 |
| 20260905031553 | 71 | 128 | 0.0 | 0.0 | 0.00 | 0.00 | 0.90 | 96 | 1011.5 |
| 20260905030052 | 71 | 128 | 0.0 | 0.0 | 0.00 | 0.00 | 0.90 | 96 | 1011.5 |
| 20260905024518 | 71 | 128 | 0.0 | 0.0 | 0.00 | 0.00 | 0.90 | 95 | 1011.6 |
| 20260905023017 | 72 | 128 | 0.0 | 0.0 | 0.00 | 0.00 | 0.90 | 95 | 1011.8 |
| 20260905021600 | 72 | 128 | 0.0 | 0.0 | 0.00 | 0.00 | 0.90 | 95 | 1011.8 |
| 20260905020049 | 72 | 128 | 0.0 | 0.0 | 0.00 | 0.00 | 0.90 | 95 | 1011.7 |
| 20260905014546 | 72 | 128 | 0.0 | 0.0 | 0.00 | 0.00 | 0.90 | 95 | 1011.8 |
| 20260905013046 | 73 | 128 | 0.0 | 0.0 | 0.00 | 0.00 | 0.90 | 94 | 1011.7 |
| 20260905011536 | 73 | 128 | 0.0 | 0.0 | 0.00 | 0.00 | 0.90 | 94 | 1011.6 |
| 20260905010036 | 73 | 128 | 0.0 | 0.0 | 0.00 | 0.00 | 0.90 | 94 | 1011.4 |
| 20260905004536 | 74 | 128 | 0.0 | 0.0 | 0.00 | 0.00 | 0.90 | 93 | 1011.6 |
| 20260905003036 | 75 | 128 | 0.0 | 0.0 | 0.00 | 0.00 | 0.90 | 93 | 1011.4 |
| 20260905001530 | 75 | 128 | 0.0 | 0.0 | 0.00 | 0.00 | 0.90 | 92 | 1011.5 |
| 20260905000020 | 76 | 128 | 0.0 | 0.0 | 0.00 | 0.00 | 0.90 | 90 | 1011.3 |
| 20260904234514 | 78 | 128 | 0.0 | 0.0 | 0.00 | 0.00 | 0.90 | 87 | 1011.3 |
| 20260904233057 | 79 | 128 | 0.0 | 0.0 | 0.00 | 0.00 | 0.90 | 85 | 1011.3 |
| 20260904231556 | 80 | 128 | 0.0 | 0.0 | 0.00 | 0.00 | 0.90 | 84 | 1011.3 |
| 20260904230053 | 80 | 128 | 1.0 | 0.0 | 0.00 | 0.00 | 0.90 | 83 | 1011.4 |
| 20260904224559 | 80 | 113 | 1.0 | 0.0 | 0.00 | 0.00 | 0.90 | 82 | 1011.4 |
| 20260904223042 | 80 | 48 | 1.0 | 0.0 | 0.00 | 0.00 | 0.90 | 84 | 1011.4 |
| 20260904221529 | 78 | 213 | 0.0 | 0.0 | 0.00 | 0.00 | 0.90 | 89 | 1011.5 |
| 20260904220027 | 78 | 213 | 0.0 | 0.0 | 0.00 | 0.00 | 0.90 | 89 | 1011.4 |
| 20260904214532 | 78 | 213 | 0.0 | 0.0 | 0.00 | 0.00 | 0.90 | 87 | 1011.1 |
| 20260904213007 | 78 | 215 | 3.0 | 0.0 | 0.00 | 0.00 | 0.90 | 85 | 1010.3 |
| 20260904211553 | 78 | 210 | 4.0 | 0.0 | 0.00 | 0.00 | 0.90 | 84 | 1009.2 |
| 20260904210049 | 79 | 210 | 5.0 | 0.0 | 0.00 | 0.00 | 0.90 | 84 | 1008.9 |
| 20260904204531 | 79 | 198 | 3.0 | 0.0 | 0.00 | 0.00 | 0.90 | 82 | 1009.3 |
| 20260904203019 | 80 | 182 | 3.0 | 0.0 | 0.00 | 0.00 | 0.90 | 81 | 1010.7 |
| 20260904201506 | 80 | 203 | 3.0 | 0.0 | 0.00 | 0.00 | 0.90 | 78 | 1011.3 |
| 20260904200112 | 82 | 190 | 1.0 | 0.0 | 0.00 | 0.00 | 0.90 | 76 | 1011.5 |
| 20260904200001 | 82 | 188 | 1.0 | 0.0 | 0.00 | 0.00 | 0.90 | 76 | 1011.5 |
| 20260904194604 | 81 | 182 | 1.0 | 0.0 | 0.00 | 0.00 | 0.90 | 77 | 1011.7 |
| 20260904193047 | 80 | 83 | 1.0 | 0.0 | 0.00 | 0.00 | 0.90 | 80 | 1011.9 |
| 20260904191535 | 78 | 42 | 3.0 | 0.0 | 0.00 | 0.00 | 0.90 | 84 | 1012.4 |
| 20260904190030 | 77 | 42 | 3.0 | 0.0 | 0.00 | 0.00 | 0.90 | 89 | 1013.1 |
| 20260904184522 | 74 | 61 | 4.0 | 0.0 | 0.00 | 0.00 | 0.90 | 93 | 1013.5 |
| 20260904183013 | 74 | 65 | 3.0 | 0.0 | 0.00 | 0.00 | 0.90 | 95 | 1014.0 |
| 20260904181508 | 73 | 106 | 1.0 | 0.0 | 0.00 | 0.00 | 0.90 | 95 | 1014.3 |
| 20260904180050 | 73 | 109 | 1.0 | 0.0 | 0.00 | 0.00 | 0.90 | 94 | 1014.7 |
| 20260904174547 | 73 | 101 | 2.0 | 0.0 | 0.00 | 0.00 | 0.90 | 92 | 1014.5 |
| 20260904173029 | 75 | 196 | 4.0 | 0.0 | 0.00 | 0.00 | 0.63 | 90 | 1014.6 |
| 20260904171520 | 81 | 214 | 1.0 | 0.0 | 0.00 | 0.00 | 0.01 | 87 | 1013.9 |
| 20260904170004 | 83 | 206 | 2.0 | 0.0 | 0.00 | 0.00 | 0.00 | 83 | 1013.4 |
| 20260904164555 | 84 | 219 | 4.0 | 0.0 | 0.00 | 0.00 | 0.00 | 80 | 1013.4 |
| 20260904163043 | 85 | 202 | 3.0 | 0.0 | 0.00 | 0.00 | 0.00 | 76 | 1013.1 |
| 20260904161534 | 86 | 205 | 1.0 | 0.0 | 0.00 | 0.00 | 0.00 | 75 | 1013.0 |
| 20260904160025 | 85 | 56 | 0.0 | 0.0 | 0.00 | 0.00 | 0.00 | 73 | 1013.2 |
| 20260904154516 | 84 | 27 | 1.0 | 0.0 | 0.00 | 0.00 | 0.00 | 76 | 1013.2 |
| 20260904153017 | 83 | 62 | 2.0 | 0.0 | 0.00 | 0.00 | 0.00 | 78 | 1013.3 |
| 20260904151556 | 84 | 45 | 1.0 | 0.0 | 0.00 | 0.00 | 0.00 | 77 | 1013.5 |
| 20260904150059 | 81 | 46 | 2.0 | 0.0 | 0.00 | 0.00 | 0.00 | 80 | 1013.7 |
| 20260904144524 | 81 | 286 | 2.0 | 0.0 | 0.00 | 0.00 | 0.00 | 85 | 1013.6 |
| 20260904143013 | 80 | 215 | 1.0 | 0.0 | 0.00 | 0.00 | 0.00 | 86 | 1013.2 |
| 20260904141615 | 78 | 98 | 0.0 | 0.0 | 0.00 | 0.00 | 0.00 | 89 | 1013.0 |
| 20260904141502 | 78 | 98 | 0.0 | 0.0 | 0.00 | 0.00 | 0.00 | 89 | 1013.0 |
| 20260904140050 | 77 | 106 | 0.0 | 0.0 | 0.00 | 0.00 | 0.00 | 90 | 1013.1 |
| 20260904134547 | 76 | 107 | 2.0 | 0.0 | 0.00 | 0.00 | 0.00 | 92 | 1013.2 |
| 20260904133030 | 75 | 182 | 0.0 | 0.0 | 0.00 | 0.00 | 0.00 | 95 | 1013.2 |
| 20260904131520 | 73 | 183 | 0.0 | 0.0 | 0.00 | 0.00 | 0.00 | 96 | 1013.3 |
| 20260904130002 | 72 | 194 | 1.0 | 0.0 | 0.00 | 0.00 | 0.00 | 96 | 1013.5 |
| 20260904124544 | 72 | 179 | 1.0 | 0.0 | 0.00 | 0.00 | 0.00 | 97 | 1013.8 |
| 20260904123032 | 72 | 179 | 0.0 | 0.0 | 0.00 | 0.00 | 0.00 | 97 | 1013.5 |
| 20260904121518 | 71 | 179 | 0.0 | 0.0 | 0.00 | 0.00 | 0.00 | 97 | 1013.5 |
| 20260904120006 | 71 | 179 | 0.0 | 0.0 | 0.00 | 0.00 | 0.00 | 97 | 1013.3 |
| 20260904114554 | 70 | 180 | 0.0 | 0.0 | 0.00 | 0.00 | 0.00 | 97 | 1013.1 |
| 20260904113049 | 69 | 180 | 0.0 | 0.0 | 0.00 | 0.00 | 0.00 | 96 | 1012.9 |
| 20260904111533 | 69 | 180 | 0.0 | 0.0 | 0.00 | 0.00 | 0.00 | 96 | 1012.7 |
| 20260904110023 | 69 | 180 | 0.0 | 0.0 | 0.00 | 0.00 | 0.00 | 96 | 1012.5 |
| 20260904104512 | 69 | 180 | 0.0 | 0.0 | 0.00 | 0.00 | 0.00 | 96 | 1012.1 |
| 20260904103006 | 69 | 180 | 0.0 | 0.0 | 0.00 | 0.00 | 0.00 | 96 | 1011.9 |
| 20260904101556 | 69 | 180 | 0.0 | 0.0 | 0.00 | 0.00 | 0.00 | 96 | 1012.0 |
| 20260904100052 | 69 | 180 | 0.0 | 0.0 | 0.00 | 0.00 | 0.00 | 96 | 1011.9 |
| 20260904094545 | 69 | 180 | 0.0 | 0.0 | 0.00 | 0.00 | 0.00 | 96 | 1011.9 |
| 20260904093034 | 69 | 179 | 0.0 | 0.0 | 0.00 | 0.00 | 0.00 | 96 | 1011.9 |
| 20260904091525 | 69 | 179 | 0.0 | 0.0 | 0.00 | 0.00 | 0.00 | 96 | 1011.9 |
| 20260904090011 | 69 | 179 | 0.0 | 0.0 | 0.00 | 0.00 | 0.00 | 95 | 1011.7 |
| 20260904084600 | 69 | 180 | 0.0 | 0.0 | 0.00 | 0.00 | 0.00 | 95 | 1011.5 |
| 20260904084508 | 69 | 180 | 0.0 | 0.0 | 0.00 | 0.00 | 0.00 | 95 | 1011.5 |